Weather at Zorro Ranch Airport [CLOSED]

Public forecast

Using degrees Fahrenheit for public forecast. Weather courtesy of forecast.io.

Closest aviation weather report (METAR) to Zorro Ranch Airport

Closest report is Moriarty Municipal Airport, 16.6 nm (30.8 km) S.

(retrieved 0 seconds ago)

Closest aviation forecast (TAF) to Zorro Ranch Airport

Closest forecast is Santa Fe Municipal Airport, 22.6 nm (41.9 km) NNW.

2024/06/22 06:48 (retrieved 3 hours ago)

TAF KSAF 220546Z 2206/2306 36005KT 6SM -SHRA BKN050 FM221200 33010KT P6SM BKN100 FM222200 03010KT P6SM -SHRA OVC100 FM230200 07008KT P6SM OVC100